Time;durP1;ratioP1;P1;durP2;ratioP2;P2;SDS_P1;SDS_P2;PMS_P1;PMS_P2;Temp;Humidity;BMP_temperature;BMP_pressure;BME280_temperature;BME280_humidity;BME280_pressure;Samples;Min_cycle;Max_cycle;Signal;HPM_P1;HPM_P2
2023/12/06 00:01:04;;;;;;;37.70;33.60;;;;;;;;;;4941488;28;20225;-79
2023/12/06 00:03:29;;;;;;;41.07;35.00;;;;;;;;;;4959688;28;20229;-79
2023/12/06 00:05:55;;;;;;;41.97;35.70;;;;;;;;;;4981709;28;20257;-78
2023/12/06 00:08:20;;;;;;;45.70;33.90;;;;;;;;;;4947256;28;20300;-78
2023/12/06 00:10:47;;;;;;;37.33;32.60;;;;;;;;;;4967576;28;20217;-80
2023/12/06 00:13:13;;;;;;;38.80;32.63;;;;;;;;;;4955676;28;20609;-78
2023/12/06 00:15:41;;;;;;;39.93;34.50;;;;;;;;;;4983985;28;20238;-79
2023/12/06 00:18:09;;;;;;;41.70;33.77;;;;;;;;;;4965549;28;21139;-79
2023/12/06 00:20:34;;;;;;;43.50;36.03;;;;;;;;;;4954537;28;20230;-78
2023/12/06 00:23:00;;;;;;;39.43;34.03;;;;;;;;;;4967333;28;20223;-81
2023/12/06 00:25:25;;;;;;;40.93;33.90;;;;;;;;;;4966359;28;20230;-79
2023/12/06 00:27:55;;;;;;;39.90;35.00;;;;;;;;;;4965994;28;20700;-79
2023/12/06 00:30:21;;;;;;;37.93;32.10;;;;;;;;;;4976333;28;20294;-79
2023/12/06 00:32:49;;;;;;;44.80;33.67;;;;;;;;;;4954417;28;20226;-79
2023/12/06 00:35:14;;;;;;;38.90;32.33;;;;;;;;;;4971835;28;20230;-79
2023/12/06 00:37:40;;;;;;;43.47;34.00;;;;;;;;;;4986740;28;20253;-79
2023/12/06 00:40:08;;;;;;;39.80;33.17;;;;;;;;;;4971811;28;20222;-78
2023/12/06 00:42:36;;;;;;;40.30;34.30;;;;;;;;;;4984306;28;20218;-78
2023/12/06 00:45:02;;;;;;;40.67;33.77;;;;;;;;;;4983753;28;20299;-78
2023/12/06 00:47:30;;;;;;;42.17;34.90;;;;;;;;;;4951985;28;20248;-78
2023/12/06 00:49:58;;;;;;;41.13;34.23;;;;;;;;;;4961492;28;20226;-77
2023/12/06 00:52:23;;;;;;;38.53;33.40;;;;;;;;;;4980288;28;20281;-78
2023/12/06 00:54:49;;;;;;;42.43;34.87;;;;;;;;;;4958479;28;20240;-77
2023/12/06 00:57:17;;;;;;;40.50;33.10;;;;;;;;;;4948669;28;20327;-76
2023/12/06 00:59:42;;;;;;;41.17;34.23;;;;;;;;;;4951810;28;20230;-76
2023/12/06 01:02:11;;;;;;;40.80;33.20;;;;;;;;;;4956517;28;20299;-76
2023/12/06 01:04:37;;;;;;;43.97;35.17;;;;;;;;;;4942876;28;20229;-79
2023/12/06 01:07:02;;;;;;;41.13;34.33;;;;;;;;;;4971039;28;20219;-79
2023/12/06 01:09:28;;;;;;;40.77;33.43;;;;;;;;;;4968669;28;20242;-78
2023/12/06 01:11:56;;;;;;;43.20;34.27;;;;;;;;;;4950108;28;20227;-77
2023/12/06 01:14:22;;;;;;;43.63;35.00;;;;;;;;;;4963843;28;20365;-79
2023/12/06 01:16:48;;;;;;;41.43;33.83;;;;;;;;;;4944004;28;20230;-79
2023/12/06 01:19:15;;;;;;;42.67;35.10;;;;;;;;;;4968900;28;20224;-78
2023/12/06 01:21:41;;;;;;;47.80;36.67;;;;;;;;;;4966904;28;20233;-79
2023/12/06 01:24:06;;;;;;;47.73;36.53;;;;;;;;;;4968098;28;20214;-79
2023/12/06 01:26:32;;;;;;;44.03;35.90;;;;;;;;;;4969824;28;20621;-79
2023/12/06 01:28:59;;;;;;;48.97;37.43;;;;;;;;;;4966106;28;20223;-78
2023/12/06 01:31:26;;;;;;;46.53;36.63;;;;;;;;;;4965781;28;20219;-79
2023/12/06 01:33:52;;;;;;;47.30;35.40;;;;;;;;;;4965598;28;20777;-78
2023/12/06 01:36:17;;;;;;;44.57;36.63;;;;;;;;;;4965163;28;20233;-78
2023/12/06 01:38:43;;;;;;;46.03;37.00;;;;;;;;;;4980951;28;20274;-78
2023/12/06 01:41:11;;;;;;;42.47;35.47;;;;;;;;;;4979500;28;20456;-78
2023/12/06 01:43:40;;;;;;;44.83;37.27;;;;;;;;;;4966362;28;20229;-78
2023/12/06 01:46:06;;;;;;;47.90;36.73;;;;;;;;;;4952738;28;20727;-79
2023/12/06 01:48:34;;;;;;;47.37;36.23;;;;;;;;;;4965656;28;20231;-79
2023/12/06 01:51:01;;;;;;;48.57;38.17;;;;;;;;;;4939069;28;20230;-79
2023/12/06 01:53:30;;;;;;;46.70;37.10;;;;;;;;;;4960539;28;20250;-78
2023/12/06 01:55:58;;;;;;;49.77;37.43;;;;;;;;;;4948359;28;20230;-78
2023/12/06 01:58:23;;;;;;;48.40;37.67;;;;;;;;;;4941803;28;20226;-77
2023/12/06 02:00:54;;;;;;;47.40;36.37;;;;;;;;;;4953147;28;20249;-79
2023/12/06 02:03:19;;;;;;;49.60;37.37;;;;;;;;;;4968994;28;20284;-79
2023/12/06 02:05:46;;;;;;;50.40;36.67;;;;;;;;;;4940243;28;20218;-78
2023/12/06 02:08:11;;;;;;;43.43;36.20;;;;;;;;;;4941252;28;20234;-78
2023/12/06 02:10:39;;;;;;;45.03;35.73;;;;;;;;;;4944454;28;20582;-78
2023/12/06 02:13:04;;;;;;;49.97;37.07;;;;;;;;;;4961122;28;20222;-78
2023/12/06 02:15:32;;;;;;;51.10;36.93;;;;;;;;;;4948071;28;20249;-80
2023/12/06 02:18:01;;;;;;;46.33;37.33;;;;;;;;;;4941696;28;20219;-78
2023/12/06 02:20:30;;;;;;;48.00;37.03;;;;;;;;;;4924193;28;20223;-78
2023/12/06 02:23:00;;;;;;;48.47;38.17;;;;;;;;;;4930742;28;20738;-78
2023/12/06 02:25:25;;;;;;;50.83;37.67;;;;;;;;;;4940237;28;20218;-78
2023/12/06 02:27:51;;;;;;;48.07;37.17;;;;;;;;;;4948787;28;20237;-78
2023/12/06 02:30:16;;;;;;;53.83;38.93;;;;;;;;;;4932217;28;20712;-78
2023/12/06 02:32:42;;;;;;;52.03;39.63;;;;;;;;;;4947622;28;20230;-76
2023/12/06 02:35:20;;;;;;;48.87;38.43;;;;;;;;;;4964125;28;20226;-77
2023/12/06 02:37:46;;;;;;;48.30;37.97;;;;;;;;;;4984830;28;20235;-78
2023/12/06 02:40:11;;;;;;;55.70;39.27;;;;;;;;;;4958326;28;20233;-78
2023/12/06 02:42:37;;;;;;;57.90;40.70;;;;;;;;;;4969140;28;20230;-77
2023/12/06 02:45:03;;;;;;;52.30;39.50;;;;;;;;;;4983771;28;20213;-78
2023/12/06 02:47:28;;;;;;;57.60;40.73;;;;;;;;;;4944105;28;20235;-80
2023/12/06 02:49:56;;;;;;;52.27;39.33;;;;;;;;;;4965078;28;20226;-79
2023/12/06 02:52:23;;;;;;;50.70;38.07;;;;;;;;;;4960414;28;20234;-80
2023/12/06 02:54:51;;;;;;;52.40;38.87;;;;;;;;;;4961254;28;20262;-78
2023/12/06 02:57:19;;;;;;;50.27;38.33;;;;;;;;;;4954314;28;20226;-80
2023/12/06 02:59:45;;;;;;;59.20;39.73;;;;;;;;;;4959183;28;20221;-79
2023/12/06 03:02:11;;;;;;;54.30;40.03;;;;;;;;;;4969013;28;21133;-79
2023/12/06 03:04:36;;;;;;;57.13;40.97;;;;;;;;;;4948938;28;20229;-80
2023/12/06 03:07:02;;;;;;;60.57;39.43;;;;;;;;;;4955217;28;20273;-77
2023/12/06 03:09:27;;;;;;;57.23;40.97;;;;;;;;;;4957955;28;20229;-77
2023/12/06 03:11:55;;;;;;;49.03;38.30;;;;;;;;;;4957171;28;20222;-76
2023/12/06 03:14:24;;;;;;;51.73;39.20;;;;;;;;;;4945193;28;20248;-77
2023/12/06 03:16:49;;;;;;;56.80;40.80;;;;;;;;;;4927367;28;20246;-78
2023/12/06 03:19:15;;;;;;;50.87;39.37;;;;;;;;;;4935323;28;20223;-77
2023/12/06 03:21:40;;;;;;;54.87;38.47;;;;;;;;;;4965922;28;20254;-77
2023/12/06 03:24:06;;;;;;;52.60;38.23;;;;;;;;;;4949463;28;20222;-77
2023/12/06 03:26:32;;;;;;;55.20;39.43;;;;;;;;;;4961174;28;20234;-77
2023/12/06 03:28:57;;;;;;;53.43;38.90;;;;;;;;;;4982530;28;20230;-78
2023/12/06 03:31:25;;;;;;;47.80;38.10;;;;;;;;;;4977191;28;20230;-77
2023/12/06 03:33:52;;;;;;;54.93;38.83;;;;;;;;;;4953435;28;20222;-78
2023/12/06 03:36:18;;;;;;;48.93;37.37;;;;;;;;;;4947594;28;20237;-79
2023/12/06 03:38:46;;;;;;;51.53;37.90;;;;;;;;;;4949166;28;20625;-79
2023/12/06 03:41:11;;;;;;;56.63;39.27;;;;;;;;;;4966668;28;20714;-79
2023/12/06 03:43:37;;;;;;;51.00;39.00;;;;;;;;;;4942616;28;20285;-78
2023/12/06 03:46:03;;;;;;;48.13;37.97;;;;;;;;;;4930719;28;20232;-80
2023/12/06 03:48:28;;;;;;;51.33;38.23;;;;;;;;;;4950554;28;20650;-80
2023/12/06 03:50:54;;;;;;;52.40;37.90;;;;;;;;;;4958886;28;20222;-80
2023/12/06 03:53:19;;;;;;;53.70;38.20;;;;;;;;;;4947187;28;20252;-79
2023/12/06 03:55:45;;;;;;;54.73;39.83;;;;;;;;;;4962437;28;20242;-79
2023/12/06 03:58:11;;;;;;;57.87;40.83;;;;;;;;;;4981779;28;20262;-79
2023/12/06 04:04:24;;;;;;;47.50;35.20;;;;;;;;;;4965683;28;20838;-78
2023/12/06 04:06:57;;;;;;;50.33;35.73;;;;;;;;;;4942122;28;20219;-79
2023/12/06 04:09:23;;;;;;;48.03;37.80;;;;;;;;;;4981757;28;20238;-80
2023/12/06 04:11:52;;;;;;;56.40;38.73;;;;;;;;;;4964204;28;20278;-77
2023/12/06 04:14:17;;;;;;;54.20;38.73;;;;;;;;;;4976780;28;20260;-79
2023/12/06 04:16:43;;;;;;;54.40;39.87;;;;;;;;;;4981668;28;20230;-79
2023/12/06 04:19:08;;;;;;;54.03;39.27;;;;;;;;;;4963156;28;20230;-78
2023/12/06 04:21:34;;;;;;;52.33;37.77;;;;;;;;;;4944049;28;20230;-80
2023/12/06 04:23:59;;;;;;;53.23;37.53;;;;;;;;;;4961074;28;20277;-79
2023/12/06 04:26:27;;;;;;;46.27;35.63;;;;;;;;;;4945882;28;20238;-78
2023/12/06 04:28:52;;;;;;;59.37;38.83;;;;;;;;;;4950138;28;20225;-78
2023/12/06 04:31:18;;;;;;;57.57;40.27;;;;;;;;;;4947335;28;20219;-78
2023/12/06 04:33:46;;;;;;;57.33;39.43;;;;;;;;;;4962879;28;20217;-77
2023/12/06 04:36:12;;;;;;;52.13;38.27;;;;;;;;;;4951396;28;20258;-79
2023/12/06 04:38:37;;;;;;;54.70;39.33;;;;;;;;;;4965447;28;20229;-79
2023/12/06 04:41:03;;;;;;;56.40;38.67;;;;;;;;;;4942739;28;20229;-79
2023/12/06 04:43:28;;;;;;;61.10;39.07;;;;;;;;;;4965248;28;20241;-77
2023/12/06 04:45:54;;;;;;;58.97;39.17;;;;;;;;;;4963821;28;20238;-80
2023/12/06 04:48:21;;;;;;;56.97;41.13;;;;;;;;;;4966834;28;20234;-78
2023/12/06 04:50:47;;;;;;;61.93;39.13;;;;;;;;;;4960847;28;20278;-78
2023/12/06 04:53:12;;;;;;;54.53;39.80;;;;;;;;;;4952366;28;20596;-78
2023/12/06 04:55:40;;;;;;;57.23;39.07;;;;;;;;;;4953354;28;20644;-77
2023/12/06 04:58:06;;;;;;;56.17;39.00;;;;;;;;;;4968162;28;20246;-79
2023/12/06 05:00:31;;;;;;;59.17;40.10;;;;;;;;;;4968641;28;20229;-80
2023/12/06 05:02:57;;;;;;;61.87;41.17;;;;;;;;;;4988351;28;20225;-79
2023/12/06 05:05:22;;;;;;;62.67;41.43;;;;;;;;;;4954598;28;20233;-79
2023/12/06 05:07:48;;;;;;;75.57;41.53;;;;;;;;;;4940083;28;20258;-79
2023/12/06 05:10:13;;;;;;;57.23;39.80;;;;;;;;;;4960014;28;20242;-79
2023/12/06 05:12:44;;;;;;;52.70;39.47;;;;;;;;;;4954296;28;20222;-78
2023/12/06 05:15:10;;;;;;;55.33;39.87;;;;;;;;;;4969230;28;20234;-78
2023/12/06 05:17:38;;;;;;;75.07;41.73;;;;;;;;;;4970462;28;20246;-78
2023/12/06 05:20:04;;;;;;;61.57;41.43;;;;;;;;;;4967967;28;20223;-78
2023/12/06 05:22:31;;;;;;;65.67;42.43;;;;;;;;;;4957920;28;20282;-78
2023/12/06 05:25:03;;;;;;;68.93;40.93;;;;;;;;;;4944815;28;20218;-79
2023/12/06 05:27:29;;;;;;;71.17;42.47;;;;;;;;;;4957308;28;20249;-79
2023/12/06 05:29:54;;;;;;;86.13;43.73;;;;;;;;;;4943732;28;20233;-79
2023/12/06 05:32:22;;;;;;;56.77;39.80;;;;;;;;;;4953268;28;20230;-79
2023/12/06 05:34:51;;;;;;;63.97;42.10;;;;;;;;;;4969689;28;20257;-78
2023/12/06 05:37:16;;;;;;;62.10;41.67;;;;;;;;;;4951813;28;20223;-79
2023/12/06 05:39:42;;;;;;;63.63;40.80;;;;;;;;;;4951215;28;20256;-78
2023/12/06 05:42:07;;;;;;;104.80;44.17;;;;;;;;;;4960768;28;20230;-79
2023/12/06 05:44:33;;;;;;;73.20;40.87;;;;;;;;;;4944554;28;20222;-79
2023/12/06 05:46:59;;;;;;;69.03;41.67;;;;;;;;;;4969916;28;20795;-78
2023/12/06 05:49:24;;;;;;;66.83;42.03;;;;;;;;;;4951342;28;20229;-78
2023/12/06 05:51:50;;;;;;;66.37;43.20;;;;;;;;;;4953304;28;20230;-78
2023/12/06 05:54:15;;;;;;;67.23;41.47;;;;;;;;;;4944606;28;20226;-79
2023/12/06 05:56:41;;;;;;;67.73;40.43;;;;;;;;;;4959700;28;20241;-79
2023/12/06 05:59:07;;;;;;;78.63;43.00;;;;;;;;;;4941014;28;20767;-77
2023/12/06 06:01:33;;;;;;;85.20;43.90;;;;;;;;;;4957548;28;20238;-79
2023/12/06 06:03:58;;;;;;;87.50;43.03;;;;;;;;;;4947360;28;20815;-79
2023/12/06 06:06:24;;;;;;;61.23;40.03;;;;;;;;;;4970483;28;20226;-79
2023/12/06 06:08:50;;;;;;;64.37;40.07;;;;;;;;;;4951576;28;20258;-79
2023/12/06 06:11:17;;;;;;;118.33;42.93;;;;;;;;;;4942857;28;20701;-79
2023/12/06 06:13:43;;;;;;;76.97;43.30;;;;;;;;;;4966898;28;20234;-78
2023/12/06 06:16:08;;;;;;;85.20;40.73;;;;;;;;;;4953768;28;20304;-79
2023/12/06 06:18:34;;;;;;;154.13;47.07;;;;;;;;;;4982484;28;21043;-79
2023/12/06 06:21:05;;;;;;;73.37;41.67;;;;;;;;;;4983152;28;20231;-79
2023/12/06 06:23:33;;;;;;;73.30;40.53;;;;;;;;;;4983631;28;20249;-79
2023/12/06 06:25:59;;;;;;;72.97;40.67;;;;;;;;;;4951280;28;20280;-79
2023/12/06 06:28:27;;;;;;;219.57;47.33;;;;;;;;;;4963276;28;20218;-80
2023/12/06 06:30:55;;;;;;;90.50;42.03;;;;;;;;;;4955959;28;20223;-79
2023/12/06 06:33:23;;;;;;;88.87;43.60;;;;;;;;;;4967147;28;20230;-77
2023/12/06 06:35:48;;;;;;;112.03;43.63;;;;;;;;;;4953722;28;20230;-79
2023/12/06 06:38:14;;;;;;;86.33;43.07;;;;;;;;;;4968645;28;20248;-79
2023/12/06 06:40:39;;;;;;;299.33;50.97;;;;;;;;;;4955742;28;20217;-79
2023/12/06 06:43:08;;;;;;;67.00;41.77;;;;;;;;;;4951690;28;20242;-78
2023/12/06 06:45:33;;;;;;;76.70;41.73;;;;;;;;;;4972761;28;20230;-78
2023/12/06 06:47:59;;;;;;;120.47;42.33;;;;;;;;;;4979904;28;20237;-78
2023/12/06 06:50:25;;;;;;;103.27;41.57;;;;;;;;;;4951822;28;20334;-79
2023/12/06 06:52:51;;;;;;;86.63;42.50;;;;;;;;;;4959640;28;20567;-79
2023/12/06 06:55:16;;;;;;;92.77;40.73;;;;;;;;;;4964966;28;20240;-78
2023/12/06 06:57:42;;;;;;;110.20;43.40;;;;;;;;;;4979197;28;20921;-78
2023/12/06 07:00:12;;;;;;;82.80;40.63;;;;;;;;;;4931313;28;20230;-79
2023/12/06 07:02:39;;;;;;;113.70;40.17;;;;;;;;;;4962260;28;20218;-78
2023/12/06 07:05:12;;;;;;;108.70;40.10;;;;;;;;;;4959264;28;20321;-79
2023/12/06 07:07:40;;;;;;;69.17;38.23;;;;;;;;;;4946532;28;20231;-79
2023/12/06 07:10:06;;;;;;;75.40;37.93;;;;;;;;;;4961746;28;20219;-78
2023/12/06 07:12:32;;;;;;;55.50;34.53;;;;;;;;;;4975277;28;20238;-78
2023/12/06 07:15:01;;;;;;;62.30;34.00;;;;;;;;;;4935881;28;20265;-78
2023/12/06 07:17:26;;;;;;;60.03;34.57;;;;;;;;;;4958628;28;20280;-80
2023/12/06 07:19:54;;;;;;;44.83;31.40;;;;;;;;;;4943544;28;20229;-79
2023/12/06 07:22:21;;;;;;;43.37;30.27;;;;;;;;;;4959127;28;20244;-79
2023/12/06 07:24:48;;;;;;;44.37;27.77;;;;;;;;;;4959530;28;20260;-79
2023/12/06 07:27:14;;;;;;;44.57;28.07;;;;;;;;;;4945109;28;20223;-79
2023/12/06 07:29:42;;;;;;;39.53;25.60;;;;;;;;;;4963159;28;20604;-79
2023/12/06 07:32:08;;;;;;;43.80;26.43;;;;;;;;;;4962021;28;20233;-79
2023/12/06 07:34:36;;;;;;;43.37;24.67;;;;;;;;;;4958143;28;20237;-79
2023/12/06 07:37:04;;;;;;;48.17;23.47;;;;;;;;;;4942413;28;20242;-79
2023/12/06 07:39:32;;;;;;;49.13;21.63;;;;;;;;;;4959916;28;20225;-79
2023/12/06 07:41:57;;;;;;;32.47;20.63;;;;;;;;;;4963687;28;20230;-79
2023/12/06 07:44:24;;;;;;;32.63;21.63;;;;;;;;;;4969682;28;20234;-78
2023/12/06 07:46:49;;;;;;;28.00;20.37;;;;;;;;;;4950841;28;20730;-79
2023/12/06 07:49:15;;;;;;;26.20;19.47;;;;;;;;;;4948636;28;20222;-79
2023/12/06 07:51:43;;;;;;;25.07;20.83;;;;;;;;;;4969531;28;20334;-80
2023/12/06 07:54:09;;;;;;;25.63;19.13;;;;;;;;;;4939523;28;20230;-79
2023/12/06 07:56:35;;;;;;;24.90;18.83;;;;;;;;;;4942035;28;20222;-78
2023/12/06 07:59:01;;;;;;;26.40;18.70;;;;;;;;;;4967324;28;20218;-79
2023/12/06 08:01:31;;;;;;;24.80;17.97;;;;;;;;;;4967928;28;20234;-79
2023/12/06 08:04:00;;;;;;;23.50;18.70;;;;;;;;;;4944979;28;20276;-79
2023/12/06 08:06:26;;;;;;;22.20;17.17;;;;;;;;;;4952088;28;20260;-79
2023/12/06 08:08:54;;;;;;;25.67;18.67;;;;;;;;;;4950871;28;20273;-79
2023/12/06 08:11:20;;;;;;;22.83;17.73;;;;;;;;;;4943103;28;20230;-78
2023/12/06 08:13:48;;;;;;;26.17;20.93;;;;;;;;;;4956825;28;20586;-79
2023/12/06 08:16:14;;;;;;;27.50;18.30;;;;;;;;;;4936205;28;20241;-79
2023/12/06 08:18:39;;;;;;;23.07;17.97;;;;;;;;;;4946750;28;20225;-78
2023/12/06 08:21:08;;;;;;;24.90;18.83;;;;;;;;;;4969121;28;20241;-79
2023/12/06 08:23:36;;;;;;;27.97;19.03;;;;;;;;;;4970772;28;20230;-79
2023/12/06 08:26:04;;;;;;;35.67;21.20;;;;;;;;;;4940393;28;20289;-79
2023/12/06 08:28:32;;;;;;;27.17;22.33;;;;;;;;;;4955103;28;20686;-78
2023/12/06 08:31:00;;;;;;;25.97;20.40;;;;;;;;;;4957263;28;20642;-78
2023/12/06 08:33:25;;;;;;;78.40;59.43;;;;;;;;;;4988409;28;20281;-79
2023/12/06 08:35:51;;;;;;;33.47;26.93;;;;;;;;;;4987814;28;20689;-79
2023/12/06 08:38:17;;;;;;;40.43;33.03;;;;;;;;;;4988612;28;20224;-80
2023/12/06 08:40:42;;;;;;;27.50;20.03;;;;;;;;;;4955041;28;20301;-80
2023/12/06 08:43:08;;;;;;;25.23;19.03;;;;;;;;;;4988189;28;20214;-79
2023/12/06 08:45:33;;;;;;;25.70;20.53;;;;;;;;;;4987045;28;20234;-79
2023/12/06 08:47:59;;;;;;;28.87;20.67;;;;;;;;;;4971837;28;20244;-79
2023/12/06 08:50:25;;;;;;;28.83;19.17;;;;;;;;;;4970543;28;20222;-79
2023/12/06 08:52:51;;;;;;;26.33;19.90;;;;;;;;;;4954600;28;20317;-79
2023/12/06 08:55:16;;;;;;;25.43;20.23;;;;;;;;;;4971708;28;20275;-79
2023/12/06 08:57:43;;;;;;;20.73;16.90;;;;;;;;;;4970546;28;20232;-80
2023/12/06 09:00:11;;;;;;;26.47;19.33;;;;;;;;;;4944803;28;20222;-81
2023/12/06 09:02:40;;;;;;;21.60;18.67;;;;;;;;;;4967153;28;20227;-80
2023/12/06 09:05:06;;;;;;;23.30;17.87;;;;;;;;;;4985402;28;20222;-80
2023/12/06 09:07:32;;;;;;;23.30;17.20;;;;;;;;;;4972287;28;20230;-80
2023/12/06 09:09:57;;;;;;;22.73;18.70;;;;;;;;;;4971496;28;20219;-80
2023/12/06 09:12:23;;;;;;;23.93;18.10;;;;;;;;;;4967138;28;20223;-81
2023/12/06 09:14:53;;;;;;;26.07;18.77;;;;;;;;;;4957783;28;20258;-81
2023/12/06 09:17:18;;;;;;;21.00;16.93;;;;;;;;;;4941035;28;20219;-78
2023/12/06 09:19:44;;;;;;;21.97;17.87;;;;;;;;;;4952640;28;20233;-79
2023/12/06 09:22:09;;;;;;;21.63;16.43;;;;;;;;;;4963933;28;20230;-79
2023/12/06 09:24:35;;;;;;;20.13;16.03;;;;;;;;;;4955529;28;20241;-79
2023/12/06 09:27:01;;;;;;;20.87;16.27;;;;;;;;;;4969992;28;20209;-79
2023/12/06 09:29:28;;;;;;;20.97;16.80;;;;;;;;;;4961173;28;20214;-79
2023/12/06 09:31:54;;;;;;;66.33;53.97;;;;;;;;;;4977569;28;20230;-79
2023/12/06 09:34:20;;;;;;;59.57;52.17;;;;;;;;;;4954081;28;20240;-78
2023/12/06 09:36:45;;;;;;;28.53;20.53;;;;;;;;;;4969222;28;20237;-78
2023/12/06 09:39:15;;;;;;;23.63;17.67;;;;;;;;;;4964364;28;20321;-78
2023/12/06 09:41:41;;;;;;;22.27;16.73;;;;;;;;;;4974727;28;20225;-79
2023/12/06 09:44:06;;;;;;;22.23;16.77;;;;;;;;;;4968432;28;20282;-78
2023/12/06 09:46:34;;;;;;;24.43;16.97;;;;;;;;;;4945591;28;20318;-78
2023/12/06 09:49:00;;;;;;;22.53;17.53;;;;;;;;;;4969098;28;20215;-79
2023/12/06 09:51:28;;;;;;;21.03;16.70;;;;;;;;;;4954011;28;20250;-79
2023/12/06 09:53:54;;;;;;;22.47;17.37;;;;;;;;;;4946822;28;20218;-79
2023/12/06 09:56:20;;;;;;;26.80;18.30;;;;;;;;;;4958000;28;20235;-80
2023/12/06 09:58:45;;;;;;;20.87;16.73;;;;;;;;;;4986350;28;20591;-80
2023/12/06 10:01:11;;;;;;;21.23;17.50;;;;;;;;;;4969713;28;20227;-79
2023/12/06 10:03:38;;;;;;;19.10;16.53;;;;;;;;;;4940560;28;20230;-80
2023/12/06 10:06:03;;;;;;;22.73;17.57;;;;;;;;;;4944255;28;20231;-79
2023/12/06 10:08:30;;;;;;;22.63;17.17;;;;;;;;;;4985064;28;20219;-80
2023/12/06 10:11:09;;;;;;;23.30;18.37;;;;;;;;;;4968836;28;20288;-80
2023/12/06 10:13:38;;;;;;;51.47;38.67;;;;;;;;;;4948899;28;20266;-80
2023/12/06 10:16:13;;;;;;;33.63;27.50;;;;;;;;;;4972450;28;20230;-79
2023/12/06 10:18:41;;;;;;;29.07;23.90;;;;;;;;;;4966241;28;20477;-79
2023/12/06 10:21:07;;;;;;;26.23;21.30;;;;;;;;;;4948060;28;20219;-79
2023/12/06 10:23:35;;;;;;;19.73;16.03;;;;;;;;;;4932962;28;20218;-80
2023/12/06 10:26:01;;;;;;;23.03;18.40;;;;;;;;;;4986331;28;20233;-81
2023/12/06 10:28:28;;;;;;;20.90;16.60;;;;;;;;;;4944603;28;20217;-79
2023/12/06 10:31:03;;;;;;;20.33;17.10;;;;;;;;;;4970124;28;20219;-81
2023/12/06 10:33:29;;;;;;;20.40;17.57;;;;;;;;;;4944276;28;20221;-81
2023/12/06 10:36:02;;;;;;;19.87;17.73;;;;;;;;;;4954681;28;20556;-80
2023/12/06 10:38:28;;;;;;;24.20;16.80;;;;;;;;;;4950633;28;20330;-81
2023/12/06 10:41:02;;;;;;;21.10;17.23;;;;;;;;;;4955433;28;20242;-80
2023/12/06 10:43:31;;;;;;;19.40;17.07;;;;;;;;;;4944388;28;20264;-81
2023/12/06 10:45:57;;;;;;;17.30;15.43;;;;;;;;;;4939246;28;20270;-81
2023/12/06 10:48:25;;;;;;;18.03;16.10;;;;;;;;;;4952652;28;20785;-79
2023/12/06 10:50:51;;;;;;;20.07;17.50;;;;;;;;;;4968226;28;20231;-80
2023/12/06 10:53:21;;;;;;;20.17;16.73;;;;;;;;;;4965974;28;20305;-80
2023/12/06 10:55:50;;;;;;;19.40;17.20;;;;;;;;;;4943404;28;20782;-79
2023/12/06 10:58:16;;;;;;;18.73;16.83;;;;;;;;;;4964726;28;20696;-80
2023/12/06 11:00:46;;;;;;;20.70;17.63;;;;;;;;;;4939732;28;20229;-80
2023/12/06 11:03:11;;;;;;;20.63;18.53;;;;;;;;;;4943858;28;20242;-80
2023/12/06 11:05:40;;;;;;;24.00;19.50;;;;;;;;;;4949294;28;20242;-80
2023/12/06 11:08:14;;;;;;;23.20;18.80;;;;;;;;;;4952901;28;20361;-79
2023/12/06 11:11:27;;;;;;;22.27;18.90;;;;;;;;;;4954079;28;20256;-80
2023/12/06 11:14:20;;;;;;;25.97;20.53;;;;;;;;;;4897014;29;20228;-80
2023/12/06 11:17:06;;;;;;;26.57;20.87;;;;;;;;;;4920027;28;20230;-80
2023/12/06 11:19:34;;;;;;;24.43;20.83;;;;;;;;;;4982831;28;21021;-80
2023/12/06 11:22:03;;;;;;;27.77;21.90;;;;;;;;;;4958825;28;20226;-80
2023/12/06 11:24:31;;;;;;;28.97;22.20;;;;;;;;;;4981455;28;20211;-79
2023/12/06 11:26:56;;;;;;;27.83;21.07;;;;;;;;;;4967077;28;20885;-79
2023/12/06 11:29:25;;;;;;;28.43;22.43;;;;;;;;;;4985744;28;20229;-79
2023/12/06 11:31:58;;;;;;;23.17;20.63;;;;;;;;;;4972725;28;20281;-79
2023/12/06 11:34:39;;;;;;;24.40;20.73;;;;;;;;;;4966168;28;20571;-79
2023/12/06 11:37:07;;;;;;;23.93;21.33;;;;;;;;;;4959753;28;20306;-79
2023/12/06 11:39:38;;;;;;;25.17;20.97;;;;;;;;;;4943320;28;20564;-79
2023/12/06 11:42:06;;;;;;;23.13;20.47;;;;;;;;;;4965911;28;20218;-79
2023/12/06 11:44:34;;;;;;;24.53;21.97;;;;;;;;;;4950716;28;20360;-79
2023/12/06 11:46:59;;;;;;;24.63;21.87;;;;;;;;;;4964645;28;20261;-78
2023/12/06 11:49:30;;;;;;;26.43;21.93;;;;;;;;;;4966699;28;20227;-79
2023/12/06 11:52:00;;;;;;;25.23;22.27;;;;;;;;;;4969718;28;20306;-79
2023/12/06 11:54:28;;;;;;;28.20;23.77;;;;;;;;;;4954825;28;20679;-79
2023/12/06 11:57:07;;;;;;;29.93;23.13;;;;;;;;;;4946467;28;20531;-79
2023/12/06 11:59:33;;;;;;;28.13;24.43;;;;;;;;;;4965399;28;20269;-79
2023/12/06 12:02:01;;;;;;;26.43;23.53;;;;;;;;;;4969498;28;20226;-79
2023/12/06 12:04:27;;;;;;;27.30;22.60;;;;;;;;;;4966494;28;20305;-79
2023/12/06 12:06:55;;;;;;;27.93;23.77;;;;;;;;;;4953547;28;20245;-77
2023/12/06 12:09:21;;;;;;;32.30;25.40;;;;;;;;;;4959527;28;20222;-79
2023/12/06 12:11:46;;;;;;;26.77;23.17;;;;;;;;;;4968907;28;20282;-79
2023/12/06 12:14:15;;;;;;;27.07;24.10;;;;;;;;;;4951382;28;20703;-78
2023/12/06 12:16:41;;;;;;;29.17;26.10;;;;;;;;;;4969685;28;20226;-79
2023/12/06 12:19:08;;;;;;;29.90;23.73;;;;;;;;;;4943714;28;20225;-80
2023/12/06 12:21:34;;;;;;;26.47;23.70;;;;;;;;;;4968782;28;20591;-79
2023/12/06 12:24:02;;;;;;;26.67;22.17;;;;;;;;;;4959306;28;20225;-79
2023/12/06 12:26:30;;;;;;;27.23;24.30;;;;;;;;;;4954290;28;20234;-79
2023/12/06 12:28:56;;;;;;;32.17;25.83;;;;;;;;;;4969235;28;20223;-79
2023/12/06 12:31:26;;;;;;;29.17;25.90;;;;;;;;;;4967029;28;20745;-79
2023/12/06 12:33:52;;;;;;;33.13;26.40;;;;;;;;;;4944301;28;20576;-79
2023/12/06 12:36:17;;;;;;;33.07;28.83;;;;;;;;;;4966456;28;20242;-79
2023/12/06 12:38:44;;;;;;;33.57;25.23;;;;;;;;;;4936316;28;20225;-79
2023/12/06 12:41:10;;;;;;;30.50;25.80;;;;;;;;;;4955954;28;20262;-79
2023/12/06 12:43:36;;;;;;;27.67;24.70;;;;;;;;;;4969346;28;20227;-79
2023/12/06 12:46:02;;;;;;;33.10;28.87;;;;;;;;;;4970786;28;20237;-79
2023/12/06 12:48:29;;;;;;;34.03;30.30;;;;;;;;;;4967476;28;20840;-79
2023/12/06 12:51:13;;;;;;;36.93;29.97;;;;;;;;;;4985192;28;20222;-80
2023/12/06 12:53:41;;;;;;;32.73;28.70;;;;;;;;;;4949897;28;20328;-79
2023/12/06 12:56:11;;;;;;;35.17;29.03;;;;;;;;;;4947082;28;20406;-79
2023/12/06 12:58:40;;;;;;;33.30;29.87;;;;;;;;;;4946002;28;20289;-79
2023/12/06 13:01:06;;;;;;;34.63;30.93;;;;;;;;;;4967093;28;20317;-79
2023/12/06 13:03:32;;;;;;;36.60;30.20;;;;;;;;;;4967938;28;20226;-80
2023/12/06 13:06:01;;;;;;;35.50;31.43;;;;;;;;;;4963935;28;20229;-79
2023/12/06 13:08:32;;;;;;;46.83;34.87;;;;;;;;;;4965513;28;20241;-78
2023/12/06 13:11:00;;;;;;;45.00;34.87;;;;;;;;;;4948062;28;20241;-80
2023/12/06 13:13:27;;;;;;;45.73;36.37;;;;;;;;;;4938331;28;20244;-79
2023/12/06 13:15:56;;;;;;;49.07;37.30;;;;;;;;;;4962226;28;20230;-79
2023/12/06 13:18:24;;;;;;;41.57;34.83;;;;;;;;;;4939915;28;20283;-79
2023/12/06 13:20:50;;;;;;;45.70;37.97;;;;;;;;;;4945575;28;20229;-80
2023/12/06 13:23:18;;;;;;;43.37;35.90;;;;;;;;;;4925362;28;20223;-79
2023/12/06 13:25:45;;;;;;;48.77;36.57;;;;;;;;;;4980081;28;20221;-80
2023/12/06 13:28:13;;;;;;;41.63;35.00;;;;;;;;;;4962745;28;20226;-79
2023/12/06 13:30:41;;;;;;;44.37;35.47;;;;;;;;;;4932935;28;20939;-80
2023/12/06 13:33:07;;;;;;;47.53;37.83;;;;;;;;;;4950632;28;20223;-79
2023/12/06 13:35:34;;;;;;;43.47;37.07;;;;;;;;;;4945909;28;20235;-80
2023/12/06 13:38:03;;;;;;;51.87;38.97;;;;;;;;;;4969580;28;20250;-78
2023/12/06 13:40:29;;;;;;;45.20;37.23;;;;;;;;;;4923134;28;20232;-79
2023/12/06 13:42:54;;;;;;;47.30;38.63;;;;;;;;;;4944316;28;20666;-79
2023/12/06 13:45:20;;;;;;;47.93;37.80;;;;;;;;;;4948224;28;20233;-78
2023/12/06 13:47:47;;;;;;;47.13;38.17;;;;;;;;;;4959806;28;20227;-79
2023/12/06 13:50:15;;;;;;;45.40;38.40;;;;;;;;;;4961689;28;20219;-79
2023/12/06 13:52:41;;;;;;;41.67;36.10;;;;;;;;;;4964397;28;20221;-80
2023/12/06 13:55:08;;;;;;;45.63;36.63;;;;;;;;;;4966137;28;21006;-79
2023/12/06 13:57:34;;;;;;;48.37;40.93;;;;;;;;;;4940343;28;20230;-78
2023/12/06 13:59:59;;;;;;;47.23;39.50;;;;;;;;;;4950886;28;20222;-80
2023/12/06 14:02:25;;;;;;;41.93;35.13;;;;;;;;;;4961055;28;20229;-78
2023/12/06 14:04:51;;;;;;;39.33;32.87;;;;;;;;;;4966228;28;20832;-79
2023/12/06 14:07:18;;;;;;;36.53;31.50;;;;;;;;;;4940435;28;20259;-80
2023/12/06 14:09:44;;;;;;;42.60;33.10;;;;;;;;;;4951885;28;20226;-79
2023/12/06 14:12:10;;;;;;;35.87;32.00;;;;;;;;;;4965989;28;20233;-80
2023/12/06 14:14:35;;;;;;;35.43;30.33;;;;;;;;;;4956793;28;20234;-79
2023/12/06 14:17:01;;;;;;;36.77;31.50;;;;;;;;;;4949246;28;20289;-80
2023/12/06 14:19:29;;;;;;;36.00;31.83;;;;;;;;;;4979467;28;20234;-79